createdAt,value
2018-04-10T00:00:18.979Z,10.50
2018-04-10T00:02:46.454Z,10.50
2018-04-10T00:05:13.931Z,10.50
2018-04-10T00:07:42.150Z,10.40
2018-04-10T00:10:09.645Z,10.40
2018-04-10T00:12:37.205Z,10.40
2018-04-10T00:15:04.660Z,10.40
2018-04-10T00:17:32.123Z,10.40
2018-04-10T00:19:59.596Z,10.40
2018-04-10T00:22:27.825Z,10.40
2018-04-10T00:24:55.365Z,10.40
2018-04-10T00:27:22.828Z,10.40
2018-04-10T00:29:50.288Z,10.40
2018-04-10T00:32:17.740Z,10.40
2018-04-10T00:34:45.215Z,10.50
2018-04-10T00:37:12.680Z,10.50
2018-04-10T00:39:40.253Z,10.40
2018-04-10T00:42:07.798Z,10.40
2018-04-10T00:44:35.264Z,10.40
2018-04-10T00:47:02.723Z,10.30
2018-04-10T00:49:30.196Z,10.30
2018-04-10T00:51:58.425Z,10.30
2018-04-10T00:54:25.912Z,10.30
2018-04-10T00:56:53.387Z,10.30
2018-04-10T00:59:21.652Z,10.20
2018-04-10T01:01:49.108Z,10.20
2018-04-10T01:04:17.231Z,10.10
2018-04-10T01:06:44.698Z,10.10
2018-04-10T01:09:12.145Z,10.10
2018-04-10T01:11:39.626Z,10.10
2018-04-10T01:14:07.088Z,10.10
2018-04-10T01:16:34.543Z,10.10
2018-04-10T01:19:02.030Z,10.00
2018-04-10T01:21:30.259Z,10.00
2018-04-10T01:23:57.888Z,10.00
2018-04-10T01:26:25.370Z,10.00
2018-04-10T01:28:52.828Z,10.10
2018-04-10T01:31:20.285Z,10.00
2018-04-10T01:33:47.760Z,10.00
2018-04-10T01:36:15.222Z,10.10
2018-04-10T01:38:42.792Z,10.10
2018-04-10T01:41:10.264Z,10.10
2018-04-10T01:43:38.528Z,10.30
2018-04-10T01:46:06.074Z,10.20
2018-04-10T01:48:33.568Z,10.30
2018-04-10T01:51:01.802Z,10.40
2018-04-10T01:53:29.267Z,10.40
2018-04-10T01:55:56.740Z,10.40
2018-04-10T01:58:24.203Z,10.50
2018-04-10T02:00:52.421Z,10.60
2018-04-10T02:03:19.895Z,10.50
2018-04-10T02:05:47.356Z,10.60
2018-04-10T02:08:14.836Z,10.60
2018-04-10T02:10:42.292Z,10.50
2018-04-10T02:13:09.759Z,10.50
2018-04-10T02:15:37.986Z,10.50
2018-04-10T02:18:05.463Z,10.50
2018-04-10T02:20:32.920Z,10.50
2018-04-10T02:23:00.384Z,10.50
2018-04-10T02:25:27.871Z,10.40
2018-04-10T02:27:56.099Z,10.50
2018-04-10T02:30:23.687Z,10.50
2018-04-10T02:32:51.164Z,10.50
2018-04-10T02:35:19.418Z,10.50
2018-04-10T02:37:46.874Z,10.50
2018-04-10T02:40:14.345Z,10.60
2018-04-10T02:42:42.572Z,10.60
2018-04-10T02:45:10.033Z,10.60
2018-04-10T02:47:38.272Z,10.70
2018-04-10T02:50:05.745Z,10.70
2018-04-10T02:52:33.212Z,10.80
2018-04-10T02:55:00.693Z,10.80
2018-04-10T02:57:28.152Z,10.80
2018-04-10T02:59:55.620Z,10.80
2018-04-10T03:02:23.181Z,10.80
2018-04-10T03:04:50.640Z,10.80
2018-04-10T03:07:18.099Z,10.80
2018-04-10T03:09:45.648Z,10.80
2018-04-10T03:12:13.110Z,10.90
2018-04-10T03:14:40.579Z,10.90
2018-04-10T03:17:08.827Z,10.90
2018-04-10T03:19:36.291Z,10.90
2018-04-10T03:22:03.756Z,10.90
2018-04-10T03:24:32.083Z,11.00
2018-04-10T03:26:59.544Z,11.10
2018-04-10T03:29:27.007Z,11.10
2018-04-10T03:31:54.502Z,11.10
2018-04-10T03:34:21.961Z,11.20
2018-04-10T03:36:49.421Z,11.20
2018-04-10T03:39:17.168Z,11.30
2018-04-10T03:41:44.630Z,11.40
2018-04-10T03:44:12.091Z,11.40
2018-04-10T03:46:39.563Z,11.50
2018-04-10T03:49:07.791Z,11.50
2018-04-10T03:51:35.255Z,11.50
2018-04-10T03:54:02.742Z,11.50
2018-04-10T03:56:30.209Z,11.60
2018-04-10T03:58:57.672Z,11.60
2018-04-10T04:01:25.916Z,11.60
2018-04-10T04:03:53.375Z,11.60
2018-04-10T04:06:20.839Z,11.50
2018-04-10T04:08:48.308Z,11.60
2018-04-10T04:11:16.541Z,11.60
2018-04-10T04:13:44.005Z,11.60
2018-04-10T04:16:23.356Z,11.70
2018-04-10T04:19:12.716Z,11.70
2018-04-10T04:22:03.840Z,11.70
2018-04-10T04:24:31.316Z,11.70
2018-04-10T04:26:59.540Z,11.80
2018-04-10T04:29:27.041Z,11.70
2018-04-10T04:31:54.592Z,11.80
2018-04-10T04:34:22.143Z,11.80
2018-04-10T04:36:49.620Z,11.80
2018-04-10T04:39:18.433Z,11.80
2018-04-10T04:41:45.900Z,11.80
2018-04-10T04:44:13.373Z,11.80
2018-04-10T04:46:40.836Z,11.80
2018-04-10T04:49:08.303Z,11.80
2018-04-10T04:51:35.779Z,11.80
2018-04-10T04:54:03.249Z,11.80
2018-04-10T04:56:31.483Z,11.80
2018-04-10T04:58:59.027Z,11.80
2018-04-10T05:01:26.493Z,11.80
2018-04-10T05:03:53.956Z,11.80
2018-04-10T05:06:21.435Z,11.80
2018-04-10T05:08:48.908Z,11.80
2018-04-10T05:11:17.148Z,11.80
2018-04-10T05:13:45.381Z,11.80
2018-04-10T05:16:12.853Z,11.80
2018-04-10T05:18:40.324Z,11.80
2018-04-10T05:21:07.782Z,11.80
2018-04-10T05:23:35.256Z,11.80
2018-04-10T05:26:02.734Z,11.90
2018-04-10T05:28:30.196Z,11.90
2018-04-10T05:30:57.672Z,11.80
2018-04-10T05:33:25.895Z,11.90
2018-04-10T05:35:53.359Z,11.80
2018-04-10T05:38:20.833Z,11.80
2018-04-10T05:40:48.295Z,11.90
2018-04-10T05:43:17.271Z,11.90
2018-04-10T05:45:44.743Z,11.90
2018-04-10T05:48:12.204Z,11.90
2018-04-10T05:50:39.668Z,11.90
2018-04-10T05:53:07.980Z,11.90
2018-04-10T05:55:36.388Z,12.00
2018-04-10T05:58:04.604Z,12.00
2018-04-10T06:00:32.844Z,12.00
2018-04-10T06:03:00.311Z,12.00
2018-04-10T06:05:27.783Z,12.10
2018-04-10T06:07:55.259Z,12.10
2018-04-10T06:10:23.500Z,12.20
2018-04-10T06:12:51.713Z,12.20
2018-04-10T06:15:19.948Z,12.30
2018-04-10T06:17:47.416Z,12.30
2018-04-10T06:20:14.891Z,12.30
2018-04-10T06:22:43.128Z,12.40
2018-04-10T06:25:10.692Z,12.40
2018-04-10T06:27:38.964Z,12.40
2018-04-10T06:30:06.436Z,12.50
2018-04-10T06:32:33.891Z,12.50
2018-04-10T06:35:01.358Z,12.60
2018-04-10T06:37:28.856Z,12.60
2018-04-10T06:39:56.367Z,12.70
2018-04-10T06:42:23.829Z,12.80
2018-04-10T06:44:51.313Z,12.80
2018-04-10T06:47:18.771Z,12.90
2018-04-10T06:49:46.231Z,12.90
2018-04-10T06:52:13.708Z,13.00
2018-04-10T06:54:41.176Z,13.00
2018-04-10T06:57:08.632Z,13.10
2018-04-10T06:59:36.127Z,13.10
2018-04-10T07:02:04.364Z,13.10
2018-04-10T07:04:31.820Z,13.10
2018-04-10T07:06:59.284Z,13.20
2018-04-10T07:09:26.748Z,13.20
2018-04-10T07:11:54.211Z,13.30
2018-04-10T07:14:21.681Z,13.40
2018-04-10T07:16:49.141Z,13.60
2018-04-10T07:19:16.637Z,13.80
2018-04-10T07:21:44.098Z,14.00
2018-04-10T07:24:12.279Z,14.10
2018-04-10T07:26:39.740Z,14.20
2018-04-10T07:29:07.207Z,14.20
2018-04-10T07:31:34.664Z,14.20
2018-04-10T07:34:02.183Z,14.20
2018-04-10T07:36:29.620Z,14.30
2018-04-10T07:38:58.344Z,14.40
2018-04-10T07:41:25.804Z,14.40
2018-04-10T07:43:53.271Z,14.40
2018-04-10T07:46:20.732Z,14.40
2018-04-10T07:48:48.188Z,14.50
2018-04-10T07:51:15.666Z,14.60
2018-04-10T07:53:43.137Z,14.70
2018-04-10T07:56:10.596Z,14.80
2018-04-10T07:58:38.609Z,14.80
2018-04-10T08:01:06.105Z,15.00
2018-04-10T08:03:33.572Z,15.10
2018-04-10T08:06:01.045Z,15.30
2018-04-10T08:08:29.309Z,15.40
2018-04-10T08:10:56.724Z,15.40
2018-04-10T08:13:24.195Z,15.60
2018-04-10T08:15:51.731Z,15.60
2018-04-10T08:18:19.212Z,15.60
2018-04-10T08:20:46.684Z,15.70
2018-04-10T08:23:14.146Z,15.80
2018-04-10T08:25:41.608Z,15.80
2018-04-10T08:28:09.083Z,15.90
2018-04-10T08:30:37.297Z,16.10
2018-04-10T08:33:04.760Z,16.10
2018-04-10T08:35:32.248Z,16.20
2018-04-10T08:37:59.713Z,16.20
2018-04-10T08:40:27.181Z,16.40
2018-04-10T08:42:55.423Z,16.60
2018-04-10T08:45:22.898Z,16.60
2018-04-10T08:47:50.357Z,16.70
2018-04-10T08:50:18.732Z,16.90
2018-04-10T08:52:46.205Z,17.10
2018-04-10T08:55:14.436Z,17.30
2018-04-10T08:57:41.896Z,17.30
2018-04-10T09:00:09.356Z,17.40
2018-04-10T09:02:36.830Z,17.40
2018-04-10T09:05:04.297Z,17.50
2018-04-10T09:07:31.761Z,17.60
2018-04-10T09:10:00.000Z,17.60
2018-04-10T09:12:27.459Z,17.60
2018-04-10T09:14:55.091Z,17.80
2018-04-10T09:17:22.560Z,18.00
2018-04-10T09:19:50.548Z,18.20
2018-04-10T09:22:18.028Z,18.30
2018-04-10T09:24:45.489Z,18.40
2018-04-10T09:27:13.717Z,18.50
2018-04-10T09:29:41.192Z,18.50
2018-04-10T09:32:08.692Z,18.60
2018-04-10T09:34:36.393Z,18.60
2018-04-10T09:37:03.864Z,18.70
2018-04-10T09:39:31.325Z,18.90
2018-04-10T09:41:58.776Z,19.00
2018-04-10T09:44:26.257Z,19.10
2018-04-10T09:46:53.738Z,19.00
2018-04-10T09:49:21.960Z,19.40
2018-04-10T09:51:50.188Z,19.60
2018-04-10T09:54:18.424Z,19.60
2018-04-10T09:56:45.888Z,19.50
2018-04-10T09:59:13.452Z,19.40
2018-04-10T10:01:40.915Z,19.20
2018-04-10T10:04:08.372Z,19.10
2018-04-10T10:06:35.828Z,18.90
2018-04-10T10:09:04.093Z,19.10
2018-04-10T10:11:32.552Z,19.10
2018-04-10T10:14:00.020Z,19.40
2018-04-10T10:16:27.485Z,19.30
2018-04-10T10:18:54.952Z,19.30
2018-04-10T10:21:22.425Z,19.20
2018-04-10T10:23:50.644Z,19.40
2018-04-10T10:26:18.120Z,19.40
2018-04-10T10:28:45.585Z,19.40
2018-04-10T10:31:13.064Z,19.40
2018-04-10T10:33:41.295Z,19.20
2018-04-10T10:36:08.784Z,19.20
2018-04-10T10:38:36.244Z,19.10
2018-04-10T10:41:03.712Z,18.90
2018-04-10T10:43:31.952Z,18.70
2018-04-10T10:45:59.407Z,18.70
2018-04-10T10:48:26.873Z,18.80
2018-04-10T10:50:54.344Z,18.80
2018-04-10T10:53:21.811Z,18.70
2018-04-10T10:55:50.057Z,18.80
2018-04-10T10:58:18.343Z,18.80
2018-04-10T11:00:45.845Z,18.80
2018-04-10T11:03:13.284Z,19.00
2018-04-10T11:05:41.520Z,19.30
2018-04-10T11:08:08.995Z,19.20
2018-04-10T11:10:37.225Z,19.40
2018-04-10T11:13:04.686Z,19.40
2018-04-10T11:15:32.156Z,19.50
2018-04-10T11:17:59.615Z,19.60
2018-04-10T11:20:27.079Z,19.60
2018-04-10T11:22:54.536Z,19.80
2018-04-10T11:25:22.003Z,19.80
2018-04-10T11:27:50.470Z,19.90
2018-04-10T11:30:17.920Z,20.00
2018-04-10T11:32:45.392Z,19.90
2018-04-10T11:35:12.863Z,20.10
2018-04-10T11:37:40.336Z,20.00
2018-04-10T11:40:08.572Z,20.10
2018-04-10T11:42:36.058Z,20.10
2018-04-10T11:45:03.531Z,20.10
2018-04-10T11:47:31.762Z,20.30
2018-04-10T11:49:59.222Z,20.30
2018-04-10T11:52:26.705Z,20.40
2018-04-10T11:54:54.219Z,20.50
2018-04-10T11:57:21.692Z,20.50
2018-04-10T11:59:49.172Z,20.60
2018-04-10T12:02:16.644Z,20.60
2018-04-10T12:04:44.896Z,20.60
2018-04-10T12:07:12.353Z,20.50
2018-04-10T12:09:39.832Z,20.70
2018-04-10T12:12:08.089Z,21.10
2018-04-10T12:14:35.545Z,21.10
2018-04-10T12:17:03.019Z,21.20
2018-04-10T12:19:31.253Z,21.50
2018-04-10T12:21:58.732Z,21.40
2018-04-10T12:24:26.202Z,21.60
2018-04-10T12:26:53.730Z,21.50
2018-04-10T12:29:22.009Z,21.60
2018-04-10T12:31:49.497Z,21.60
2018-04-10T12:34:18.086Z,21.40
2018-04-10T12:36:46.328Z,21.30
2018-04-10T12:39:13.816Z,21.30
2018-04-10T12:41:42.027Z,21.40
2018-04-10T12:44:09.511Z,21.30
2018-04-10T12:46:36.985Z,21.40
2018-04-10T12:49:04.457Z,21.40
2018-04-10T12:51:32.676Z,21.60
2018-04-10T12:54:00.152Z,21.60
2018-04-10T12:56:27.620Z,21.60
2018-04-10T12:58:55.116Z,21.60
2018-04-10T13:01:22.604Z,21.70
2018-04-10T13:03:50.082Z,21.70
2018-04-10T13:06:17.550Z,21.90
2018-04-10T13:08:45.024Z,21.90
2018-04-10T13:11:12.481Z,21.80
2018-04-10T13:13:39.946Z,21.80
2018-04-10T13:16:08.177Z,21.80
2018-04-10T13:18:35.640Z,21.80
2018-04-10T13:21:03.119Z,22.00
2018-04-10T13:23:30.587Z,22.10
2018-04-10T13:25:58.824Z,22.10
2018-04-10T13:28:26.329Z,22.10
2018-04-10T13:30:54.553Z,22.10
2018-04-10T13:33:22.044Z,22.10
2018-04-10T13:35:49.495Z,22.20
2018-04-10T13:38:16.972Z,22.00
2018-04-10T13:40:45.212Z,21.70
2018-04-10T13:43:12.692Z,21.70
2018-04-10T13:45:40.143Z,21.60
2018-04-10T13:48:07.607Z,21.70
2018-04-10T13:50:35.065Z,21.70
2018-04-10T13:53:02.546Z,21.60
2018-04-10T13:55:29.996Z,21.60
2018-04-10T13:57:57.473Z,21.60
2018-04-10T14:00:24.936Z,21.70
2018-04-10T14:02:52.395Z,21.80
2018-04-10T14:05:19.871Z,21.90
2018-04-10T14:07:47.324Z,22.10
2018-04-10T14:10:14.788Z,22.20
2018-04-10T14:12:42.277Z,22.20
2018-04-10T14:15:09.743Z,22.30
2018-04-10T14:17:37.980Z,22.30
2018-04-10T14:20:06.003Z,22.20
2018-04-10T14:22:33.484Z,22.20
2018-04-10T14:25:00.945Z,22.20
2018-04-10T14:27:28.416Z,22.20
2018-04-10T14:29:55.892Z,22.30
2018-04-10T14:32:23.371Z,22.20
2018-04-10T14:34:51.600Z,22.30
2018-04-10T14:37:19.064Z,22.20
2018-04-10T14:39:46.520Z,22.20
2018-04-10T14:42:13.997Z,22.10
2018-04-10T14:44:41.448Z,22.20
2018-04-10T14:47:08.921Z,22.20
2018-04-10T14:49:36.467Z,22.20
2018-04-10T14:52:03.919Z,22.00
2018-04-10T14:54:31.405Z,22.10
2018-04-10T14:56:59.646Z,22.00
2018-04-10T14:59:27.116Z,22.00
2018-04-10T15:01:54.602Z,22.10
2018-04-10T15:04:22.827Z,22.00
2018-04-10T15:06:51.171Z,22.00
2018-04-10T15:09:18.643Z,22.10
2018-04-10T15:11:46.112Z,22.10
2018-04-10T15:14:13.604Z,22.10
2018-04-10T15:16:41.072Z,22.00
2018-04-10T15:19:09.299Z,22.00
2018-04-10T15:21:37.731Z,22.00
2018-04-10T15:24:06.041Z,21.80
2018-04-10T15:26:33.537Z,21.80
2018-04-10T15:29:01.036Z,21.60
2018-04-10T15:31:28.499Z,21.60
2018-04-10T15:33:55.962Z,21.50
2018-04-10T15:36:23.442Z,21.60
2018-04-10T15:38:50.904Z,21.60
2018-04-10T15:41:18.423Z,21.50
2018-04-10T15:43:45.895Z,21.40
2018-04-10T15:46:13.367Z,21.30
2018-04-10T15:48:40.849Z,21.20
2018-04-10T15:51:08.320Z,21.30
2018-04-10T15:53:35.801Z,21.10
2018-04-10T15:56:03.322Z,21.10
2018-04-10T15:58:30.801Z,21.20
2018-04-10T16:00:59.041Z,20.80
2018-04-10T16:03:26.508Z,20.80
2018-04-10T16:05:53.996Z,20.80
2018-04-10T16:08:22.244Z,20.60
2018-04-10T16:10:49.704Z,20.60
2018-04-10T16:13:17.188Z,20.50
2018-04-10T16:15:45.431Z,20.30
2018-04-10T16:18:12.888Z,20.30
2018-04-10T16:20:40.380Z,20.20
2018-04-10T16:23:07.876Z,20.20
2018-04-10T16:25:35.333Z,20.30
2018-04-10T16:28:02.820Z,20.10
2018-04-10T16:30:30.768Z,20.00
2018-04-10T16:33:00.026Z,19.90
2018-04-10T16:35:34.054Z,19.80
2018-04-10T16:38:01.551Z,19.60
2018-04-10T16:40:29.014Z,19.50
2018-04-10T16:42:57.476Z,19.30
2018-04-10T16:45:24.944Z,19.20
2018-04-10T16:47:52.435Z,19.10
2018-04-10T16:50:20.677Z,19.00
2018-04-10T16:52:48.136Z,19.00
2018-04-10T16:55:15.627Z,18.90
2018-04-10T16:57:43.857Z,18.70
2018-04-10T17:00:11.315Z,18.60
2018-04-10T17:02:38.791Z,18.70
2018-04-10T17:05:07.040Z,18.70
2018-04-10T17:07:34.504Z,18.70
2018-04-10T17:10:01.989Z,18.70
2018-04-10T17:12:30.212Z,18.50
2018-04-10T17:14:57.684Z,18.50
2018-04-10T17:17:25.171Z,18.50
2018-04-10T17:19:52.685Z,18.40
2018-04-10T17:22:21.035Z,18.40
2018-04-10T17:24:48.557Z,18.20
2018-04-10T17:27:16.015Z,18.30
2018-04-10T17:29:43.481Z,18.30
2018-04-10T17:32:11.755Z,18.20
2018-04-10T17:34:39.240Z,18.20
2018-04-10T17:37:06.705Z,18.10
2018-04-10T17:39:34.192Z,18.10
2018-04-10T17:42:01.667Z,18.10
2018-04-10T17:44:29.130Z,18.00
2018-04-10T17:46:57.247Z,18.00
2018-04-10T17:49:24.714Z,18.00
2018-04-10T17:51:52.198Z,18.00
2018-04-10T17:54:19.676Z,17.90
2018-04-10T17:56:47.181Z,17.80
2018-04-10T17:59:14.680Z,17.80
2018-04-10T18:01:42.166Z,17.70
2018-04-10T18:04:10.416Z,17.70
2018-04-10T18:06:37.883Z,17.70
2018-04-10T18:09:05.364Z,17.60
2018-04-10T18:11:32.832Z,17.60
2018-04-10T18:14:00.308Z,17.50
2018-04-10T18:16:28.540Z,17.40
2018-04-10T18:18:56.920Z,17.40
2018-04-10T18:21:25.177Z,17.40
2018-04-10T18:23:52.639Z,17.30
2018-04-10T18:26:20.154Z,17.30
2018-04-10T18:28:47.629Z,17.20
2018-04-10T18:31:15.131Z,17.20
2018-04-10T18:33:42.634Z,17.20
2018-04-10T18:36:10.110Z,17.20
2018-04-10T18:38:37.618Z,17.20
2018-04-10T18:41:05.086Z,17.10
2018-04-10T18:43:32.553Z,17.10
2018-04-10T18:46:00.029Z,17.00
2018-04-10T18:48:27.492Z,17.00
2018-04-10T18:50:55.759Z,16.90
2018-04-10T18:53:23.224Z,16.90
2018-04-10T18:55:50.700Z,16.90
2018-04-10T18:58:18.195Z,16.90
2018-04-10T19:00:45.656Z,16.80
2018-04-10T19:03:13.121Z,16.70
2018-04-10T19:05:40.604Z,16.70
2018-04-10T19:08:08.076Z,16.70
2018-04-10T19:10:35.553Z,16.60
2018-04-10T19:13:03.796Z,16.50
2018-04-10T19:15:31.255Z,16.50
2018-04-10T19:17:58.721Z,16.50
2018-04-10T19:20:26.187Z,16.50
2018-04-10T19:22:53.667Z,16.50
2018-04-10T19:25:22.242Z,16.50
2018-04-10T19:27:50.490Z,16.40
2018-04-10T19:30:17.951Z,16.30
2018-04-10T19:32:45.411Z,16.40
2018-04-10T19:35:12.896Z,16.40
2018-04-10T19:37:41.126Z,16.30
2018-04-10T19:40:08.621Z,16.30
2018-04-10T19:42:36.900Z,16.20
2018-04-10T19:45:05.132Z,16.10
2018-04-10T19:47:32.624Z,16.10
2018-04-10T19:50:00.891Z,16.10
2018-04-10T19:52:28.359Z,16.10
2018-04-10T19:54:56.644Z,16.10
2018-04-10T19:57:24.144Z,16.00
2018-04-10T19:59:51.635Z,16.00
2018-04-10T20:02:19.152Z,16.00
2018-04-10T20:04:46.695Z,16.00
2018-04-10T20:07:14.929Z,15.90
2018-04-10T20:09:42.458Z,15.90
2018-04-10T20:12:09.973Z,15.80
2018-04-10T20:14:37.551Z,15.80
2018-04-10T20:17:05.008Z,15.90
2018-04-10T20:19:32.492Z,15.80
2018-04-10T20:21:59.963Z,15.90
2018-04-10T20:24:27.448Z,15.80
2018-04-10T20:26:55.729Z,15.70
2018-04-10T20:29:23.970Z,15.70
2018-04-10T20:31:51.452Z,15.70
2018-04-10T20:34:19.685Z,15.70
2018-04-10T20:36:47.164Z,15.70
2018-04-10T20:39:14.657Z,15.70
2018-04-10T20:41:42.875Z,15.70
2018-04-10T20:44:10.368Z,15.70
2018-04-10T20:46:38.608Z,15.70
2018-04-10T20:49:06.071Z,15.60
2018-04-10T20:51:33.556Z,15.60
2018-04-10T20:54:01.791Z,15.50
2018-04-10T20:56:29.268Z,15.50
2018-04-10T20:58:56.736Z,15.50
2018-04-10T21:01:24.214Z,15.50
2018-04-10T21:03:52.444Z,15.50
2018-04-10T21:06:19.963Z,15.40
2018-04-10T21:08:47.436Z,15.50
2018-04-10T21:11:14.900Z,15.40
2018-04-10T21:13:42.377Z,15.40
2018-04-10T21:16:09.840Z,15.30
2018-04-10T21:18:37.310Z,15.30
2018-04-10T21:21:04.780Z,15.20
2018-04-10T21:23:33.002Z,15.10
2018-04-10T21:26:00.484Z,15.00
2018-04-10T21:28:27.961Z,15.00
2018-04-10T21:30:55.567Z,15.00
2018-04-10T21:33:23.040Z,14.90
2018-04-10T21:35:50.513Z,14.90
2018-04-10T21:38:18.800Z,14.80
2018-04-10T21:40:46.278Z,14.80
2018-04-10T21:43:20.268Z,14.70
2018-04-10T21:45:47.762Z,14.70
2018-04-10T21:48:15.989Z,14.60
2018-04-10T21:50:43.439Z,14.60
2018-04-10T21:53:11.190Z,14.70
2018-04-10T21:55:38.652Z,14.70
2018-04-10T21:58:06.164Z,14.70
2018-04-10T22:00:33.583Z,14.60
2018-04-10T22:03:01.051Z,14.60
2018-04-10T22:05:28.524Z,14.60
2018-04-10T22:07:56.790Z,14.50
2018-04-10T22:10:24.270Z,14.50
2018-04-10T22:12:53.142Z,14.40
2018-04-10T22:15:21.368Z,14.30
2018-04-10T22:17:48.859Z,14.30
2018-04-10T22:20:16.334Z,14.30
2018-04-10T22:22:44.626Z,14.40
2018-04-10T22:25:12.886Z,14.30
2018-04-10T22:27:40.312Z,14.30
2018-04-10T22:30:07.800Z,14.20
2018-04-10T22:32:36.028Z,13.80
2018-04-10T22:35:03.502Z,13.80
2018-04-10T22:37:32.625Z,13.60
2018-04-10T22:40:00.125Z,13.50
2018-04-10T22:42:27.601Z,13.30
2018-04-10T22:44:55.101Z,13.20
2018-04-10T22:47:22.590Z,13.00
2018-04-10T22:49:50.048Z,12.80
2018-04-10T22:52:17.524Z,12.60
2018-04-10T22:54:44.989Z,12.60
2018-04-10T22:57:13.253Z,12.50
2018-04-10T22:59:40.731Z,12.50
2018-04-10T23:02:08.961Z,12.40
2018-04-10T23:04:36.495Z,12.40
2018-04-10T23:07:03.973Z,12.40
2018-04-10T23:09:31.446Z,12.40
2018-04-10T23:11:58.922Z,12.30
2018-04-10T23:14:26.397Z,12.30
2018-04-10T23:16:53.869Z,12.20
2018-04-10T23:19:22.106Z,12.30
2018-04-10T23:21:49.599Z,12.30
2018-04-10T23:24:17.064Z,12.30
2018-04-10T23:26:45.319Z,12.30
2018-04-10T23:29:12.793Z,12.20
2018-04-10T23:31:40.271Z,12.30
2018-04-10T23:34:08.504Z,12.30
2018-04-10T23:36:35.970Z,12.30
2018-04-10T23:39:03.439Z,12.30
2018-04-10T23:41:30.891Z,12.30
2018-04-10T23:43:58.348Z,12.30
2018-04-10T23:46:25.829Z,12.30
2018-04-10T23:48:54.074Z,12.20
2018-04-10T23:51:21.528Z,12.20
2018-04-10T23:53:49.000Z,12.20
2018-04-10T23:56:16.478Z,12.20
2018-04-10T23:58:44.724Z,12.10
